Decoded Metar for RKTN (TAEGU in KOREA) (IATA:TAE) | Meteo·Mobile Aviation Weather
aviador You're here:

RKTN Decoded Metar

TAEGU in KOREA
Report Time2018-09-20 07:00:00
UTC Time2018-09-20 07:30:16
Flight Rules mvfr MVFR
Wind130° at 09 kt
W.Decomp.*RWY 13: 8.9 kt HW 1.1 kt RCW
W.Rank130° ranks 4
Current wind is above 130° avg. (4.8)
Visibility9000 m
Phenomena:N/A
Clouds:Scattered 015 Hf
Broken 022 Hf
Overcast 040 Hf
Expected CloudBase > 800 ft AGL from Temp-Dew spread
Ceiling2,200 ft
Temp21°C (ISA +6)
Dew Point19°C (88% RH)
QNH1009 hPa
Density Alt1,270 ft
Elevation115 ft
Report Wrong Elevation
Raw Report
METAR RKTN 200700Z 13009KT 9000 SCT015 BKN022 OVC040 21/19 Q1009
NOSIG=

Extra information for RKTN:More info

Metar Taf Metar & Taf Last 4 Metars F.Rules Stats Wind Profile Meteogram Temp Stats Airport Information Weather charts Add Link Nearby VenuesMetar ALERT Operation Metar Decoded Social comments